Time;durP1;ratioP1;P1;durP2;ratioP2;P2;SDS_P1;SDS_P2;PMS_P1;PMS_P2;Temp;Humidity;BMP_temperature;BMP_pressure;BME280_temperature;BME280_humidity;BME280_pressure;Samples;Min_cycle;Max_cycle;Signal;HPM_P1;HPM_P2
2021/08/10 00:01:49;;;;;;;4.30;1.80;;;;;;;13.99;100.00;101083.63;5056750;28;20179;-73
2021/08/10 00:04:14;;;;;;;4.90;2.07;;;;;;;14.02;100.00;101082.56;5055596;28;20176;-73
2021/08/10 00:06:39;;;;;;;4.50;1.97;;;;;;;14.01;100.00;101084.38;5056376;28;20179;-72
2021/08/10 00:09:05;;;;;;;6.77;1.80;;;;;;;13.97;100.00;101080.16;5056667;28;20536;-72
2021/08/10 00:11:30;;;;;;;3.60;1.90;;;;;;;14.00;100.00;101076.44;5057796;28;20175;-72
2021/08/10 00:13:55;;;;;;;3.33;1.80;;;;;;;14.06;100.00;101071.53;5054848;28;20207;-72
2021/08/10 00:16:21;;;;;;;3.00;1.83;;;;;;;14.11;100.00;101079.28;5038084;28;20299;-72
2021/08/10 00:18:46;;;;;;;2.97;1.70;;;;;;;14.08;100.00;101082.16;5056079;28;20229;-73
2021/08/10 00:21:12;;;;;;;4.70;1.80;;;;;;;14.11;100.00;101089.16;5056119;28;20179;-73
2021/08/10 00:23:37;;;;;;;4.63;2.07;;;;;;;14.11;100.00;101078.41;5056027;28;20193;-73
2021/08/10 00:26:03;;;;;;;9.10;2.23;;;;;;;14.06;100.00;101076.91;5054873;28;20230;-72
2021/08/10 00:28:29;;;;;;;5.77;1.73;;;;;;;14.05;100.00;101075.16;5038138;28;20183;-72
2021/08/10 00:30:54;;;;;;;2.60;1.43;;;;;;;14.01;100.00;101068.28;5056005;28;20191;-73
2021/08/10 00:33:19;;;;;;;3.30;1.70;;;;;;;13.99;100.00;101063.97;5056084;28;20175;-73
2021/08/10 00:35:45;;;;;;;3.43;2.10;;;;;;;13.96;100.00;101067.72;5054621;28;20667;-73
2021/08/10 00:38:10;;;;;;;2.13;1.70;;;;;;;13.95;100.00;101063.31;5056162;28;20179;-73
2021/08/10 00:40:36;;;;;;;2.80;2.00;;;;;;;13.98;100.00;101065.78;5054746;28;20203;-73
2021/08/10 00:43:02;;;;;;;5.70;2.17;;;;;;;13.93;100.00;101065.22;5054891;28;20179;-73
2021/08/10 00:45:27;;;;;;;2.47;1.77;;;;;;;13.89;100.00;101068.19;5054740;28;20324;-73
2021/08/10 00:47:53;;;;;;;4.50;1.80;;;;;;;13.89;100.00;101061.00;5055866;28;20183;-73
2021/08/10 00:50:18;;;;;;;3.77;1.87;;;;;;;13.90;100.00;101064.56;5056133;28;20741;-73
2021/08/10 00:52:43;;;;;;;3.50;1.50;;;;;;;13.91;100.00;101067.16;5054472;28;20171;-73
2021/08/10 00:55:09;;;;;;;4.57;1.97;;;;;;;13.86;100.00;101065.72;5054535;28;20175;-73
2021/08/10 00:57:35;;;;;;;5.40;2.00;;;;;;;13.86;100.00;101063.88;5054341;28;20215;-73
2021/08/10 01:00:00;;;;;;;5.20;2.00;;;;;;;13.83;100.00;101058.72;5037866;28;20245;-73
2021/08/10 01:02:26;;;;;;;5.40;2.20;;;;;;;13.82;100.00;101053.44;5054177;28;20263;-73
2021/08/10 01:04:51;;;;;;;3.73;2.10;;;;;;;13.80;100.00;101058.91;5058625;28;20184;-73
2021/08/10 01:07:24;;;;;;;5.27;1.97;;;;;;;13.77;100.00;101057.28;5063060;28;20180;-73
2021/08/10 01:10:18;;;;;;;3.17;1.93;;;;;;;13.74;100.00;101067.31;5044448;28;20267;-72
2021/08/10 01:12:59;;;;;;;4.47;2.00;;;;;;;13.67;100.00;101057.94;5060241;28;20159;-73
2021/08/10 01:15:30;;;;;;;4.27;1.87;;;;;;;13.73;100.00;101058.41;5053874;28;20198;-73
2021/08/10 01:18:06;;;;;;;2.50;1.73;;;;;;;13.66;100.00;101057.06;5054379;28;20512;-73
2021/08/10 01:20:34;;;;;;;2.77;1.93;;;;;;;13.65;100.00;101060.72;5037143;28;20191;-73
2021/08/10 01:23:00;;;;;;;5.43;2.10;;;;;;;13.64;100.00;101061.66;5055326;28;20205;-73
2021/08/10 01:25:52;;;;;;;3.87;2.07;;;;;;;13.67;100.00;101057.94;5053697;28;20171;-73
2021/08/10 01:28:35;;;;;;;3.63;2.00;;;;;;;13.66;100.00;101059.75;5053510;28;20701;-73
2021/08/10 01:31:06;;;;;;;3.23;2.07;;;;;;;13.64;100.00;101066.19;5053494;28;20199;-73
2021/08/10 01:33:38;;;;;;;4.90;2.10;;;;;;;13.61;100.00;101059.19;5054899;28;20309;-73
2021/08/10 01:36:04;;;;;;;5.43;2.00;;;;;;;13.61;100.00;101061.88;5036708;28;20563;-73
2021/08/10 01:38:31;;;;;;;4.97;2.10;;;;;;;13.60;100.00;101054.78;5053275;28;20183;-73
2021/08/10 01:40:58;;;;;;;4.07;2.33;;;;;;;13.56;100.00;101057.75;5053438;28;20192;-73
2021/08/10 01:43:25;;;;;;;5.83;1.90;;;;;;;13.51;100.00;101052.66;5053559;28;20176;-73
2021/08/10 01:45:50;;;;;;;12.07;2.30;;;;;;;13.53;100.00;101052.56;5036615;28;20595;-73
2021/08/10 01:48:16;;;;;;;8.20;2.43;;;;;;;13.55;100.00;101053.34;5054833;28;20254;-74
2021/08/10 01:50:44;;;;;;;3.83;2.20;;;;;;;13.54;100.00;101059.66;5053437;28;20234;-73
2021/08/10 01:53:10;;;;;;;3.50;2.20;;;;;;;13.54;100.00;101056.97;5053858;28;20186;-73
2021/08/10 01:55:36;;;;;;;9.47;2.47;;;;;;;13.58;100.00;101058.50;5054004;28;20199;-73
2021/08/10 01:58:01;;;;;;;4.83;2.20;;;;;;;13.55;100.00;101053.34;5037394;28;20187;-74
2021/08/10 02:00:27;;;;;;;5.37;2.20;;;;;;;13.54;100.00;101056.97;5037327;28;20203;-73
2021/08/10 02:02:53;;;;;;;5.57;2.10;;;;;;;13.54;100.00;101051.63;5036937;28;20640;-73
2021/08/10 02:05:20;;;;;;;4.73;2.13;;;;;;;13.51;100.00;101049.13;5053925;28;20194;-73
2021/08/10 02:07:45;;;;;;;5.73;2.40;;;;;;;13.47;100.00;101044.91;5036377;28;20175;-73
2021/08/10 02:10:11;;;;;;;4.40;2.50;;;;;;;13.47;100.00;101052.97;5052883;28;20202;-73
2021/08/10 02:12:37;;;;;;;3.07;2.20;;;;;;;13.44;100.00;101054.88;5036228;28;20175;-72
2021/08/10 02:15:02;;;;;;;3.53;2.17;;;;;;;13.41;100.00;101055.06;5035927;28;20547;-72
2021/08/10 02:17:28;;;;;;;4.10;2.23;;;;;;;13.41;100.00;101054.19;5053864;28;20536;-71
2021/08/10 02:19:53;;;;;;;7.23;2.80;;;;;;;13.43;100.00;101061.19;5053106;28;20198;-72
2021/08/10 02:22:19;;;;;;;4.90;2.60;;;;;;;13.41;100.00;101057.75;5052941;28;20167;-72
2021/08/10 02:25:03;;;;;;;5.37;2.23;;;;;;;13.42;100.00;101058.59;5052749;28;20171;-74
2021/08/10 02:27:36;;;;;;;6.27;2.40;;;;;;;13.38;100.00;101057.03;5052880;28;20400;-73
2021/08/10 02:30:07;;;;;;;3.43;2.27;;;;;;;13.38;100.00;101055.25;5035624;28;20277;-72
2021/08/10 02:32:33;;;;;;;4.63;2.37;;;;;;;13.41;100.00;101060.44;5052427;28;20190;-73
2021/08/10 02:34:59;;;;;;;3.73;2.40;;;;;;;13.43;100.00;101054.97;5052598;28;20195;-74
2021/08/10 02:37:25;;;;;;;4.13;2.50;;;;;;;13.47;100.00;101056.50;5052443;28;20183;-72
2021/08/10 02:39:52;;;;;;;4.17;2.30;;;;;;;13.52;100.00;101058.91;5052448;28;20229;-73
2021/08/10 02:42:18;;;;;;;3.17;2.37;;;;;;;13.52;100.00;101053.53;5035755;28;20176;-71
2021/08/10 02:44:44;;;;;;;4.87;2.03;;;;;;;13.52;100.00;101042.81;5035525;28;20175;-72
2021/08/10 02:47:09;;;;;;;5.27;2.00;;;;;;;13.52;100.00;101048.16;5052326;28;20254;-73
2021/08/10 02:49:34;;;;;;;4.73;2.27;;;;;;;13.51;100.00;101044.63;5051944;28;20295;-72
2021/08/10 02:52:00;;;;;;;7.23;2.80;;;;;;;13.53;100.00;101033.81;5053486;28;20222;-72
2021/08/10 02:54:25;;;;;;;2.83;2.30;;;;;;;13.50;100.00;101034.84;5053364;28;20178;-72
2021/08/10 02:56:56;;;;;;;6.83;2.30;;;;;;;13.38;100.00;101036.50;5052012;28;20202;-73
2021/08/10 02:59:34;;;;;;;4.23;2.07;;;;;;;13.32;100.00;101038.66;5052008;28;20191;-73
2021/08/10 03:02:06;;;;;;;4.90;2.63;;;;;;;13.28;100.00;101039.78;5051990;28;20521;-73
2021/08/10 03:04:33;;;;;;;4.67;2.67;;;;;;;13.22;100.00;101034.81;5052029;28;20195;-72
2021/08/10 03:06:58;;;;;;;6.57;2.53;;;;;;;13.25;100.00;101035.50;5051833;28;20168;-72
2021/08/10 03:09:24;;;;;;;6.57;2.83;;;;;;;13.34;100.00;101031.38;5052049;28;20266;-72
2021/08/10 03:11:50;;;;;;;3.97;2.23;;;;;;;13.42;100.00;101037.16;5051882;28;20171;-73
2021/08/10 03:14:15;;;;;;;4.63;2.90;;;;;;;13.50;100.00;101031.31;5035046;28;20258;-72
2021/08/10 03:16:42;;;;;;;5.33;2.57;;;;;;;13.57;100.00;101033.50;5053170;28;20552;-72
2021/08/10 03:19:09;;;;;;;5.60;2.83;;;;;;;13.63;100.00;101040.31;5051562;28;20191;-73
2021/08/10 03:21:35;;;;;;;4.57;2.37;;;;;;;13.64;100.00;101042.03;5035202;28;20175;-72
2021/08/10 03:24:05;;;;;;;4.73;2.40;;;;;;;13.66;100.00;101040.13;5052805;28;20179;-72
2021/08/10 03:26:30;;;;;;;5.27;2.50;;;;;;;13.65;100.00;101033.03;5053239;28;20604;-72
2021/08/10 03:28:57;;;;;;;3.33;2.37;;;;;;;13.66;100.00;101035.63;5052162;28;20179;-73
2021/08/10 03:31:23;;;;;;;3.87;2.23;;;;;;;13.68;100.00;101040.88;5051693;28;20221;-72
2021/08/10 03:33:48;;;;;;;3.97;2.70;;;;;;;13.64;100.00;101039.34;5051686;28;20172;-72
2021/08/10 03:36:14;;;;;;;3.60;2.13;;;;;;;13.69;100.00;101040.78;5051466;28;20190;-72
2021/08/10 03:38:40;;;;;;;2.53;2.30;;;;;;;13.73;100.00;101030.72;5051420;28;20179;-72
2021/08/10 03:41:06;;;;;;;4.60;2.77;;;;;;;13.77;100.00;101026.91;5034754;28;20195;-72
2021/08/10 03:43:33;;;;;;;4.40;2.40;;;;;;;13.72;100.00;101035.22;5051832;28;20176;-73
2021/08/10 03:45:59;;;;;;;5.67;2.73;;;;;;;13.69;100.00;101034.56;5035213;28;20540;-72
2021/08/10 03:48:24;;;;;;;4.90;2.60;;;;;;;13.71;100.00;101046.06;5034924;28;20186;-72
2021/08/10 03:50:52;;;;;;;4.83;2.67;;;;;;;13.68;100.00;101035.53;5071909;22;20230;-69
2021/08/10 03:53:21;;;;;;;3.53;2.17;;;;;;;13.75;100.00;101036.84;5052741;28;20175;-69
2021/08/10 03:55:47;;;;;;;4.20;2.43;;;;;;;13.71;100.00;101035.31;5052512;28;20611;-69
2021/08/10 03:58:13;;;;;;;8.20;2.57;;;;;;;13.64;100.00;101034.00;5051329;28;20544;-69
2021/08/10 04:00:39;;;;;;;8.40;2.47;;;;;;;13.57;100.00;101024.59;5052422;28;20283;-69
2021/08/10 04:03:06;;;;;;;5.97;2.50;;;;;;;13.58;100.00;101032.56;5052907;28;20186;-69
2021/08/10 04:05:31;;;;;;;5.03;2.17;;;;;;;13.58;100.00;101037.91;5051445;28;20171;-69
2021/08/10 04:07:57;;;;;;;6.07;2.87;;;;;;;13.61;100.00;101037.72;5034387;28;20202;-69
2021/08/10 04:10:22;;;;;;;5.60;2.77;;;;;;;13.57;100.00;101038.88;5051108;28;20195;-69
2021/08/10 04:12:48;;;;;;;3.70;2.40;;;;;;;13.53;100.00;101041.84;5052866;28;20176;-70
2021/08/10 04:15:14;;;;;;;10.43;2.90;;;;;;;13.49;100.00;101038.50;5050990;28;20184;-70
2021/08/10 04:17:39;;;;;;;4.13;2.60;;;;;;;13.50;100.00;101036.69;5051348;28;20587;-71
2021/08/10 04:20:06;;;;;;;4.07;2.33;;;;;;;13.54;100.00;101032.84;5051073;28;20194;-71
2021/08/10 04:22:32;;;;;;;3.90;2.50;;;;;;;13.53;100.00;101033.81;5051190;28;20267;-70
2021/08/10 04:24:57;;;;;;;3.80;2.50;;;;;;;13.52;100.00;101029.41;5051034;28;20207;-69
2021/08/10 04:27:23;;;;;;;6.37;2.63;;;;;;;13.50;100.00;101039.34;5051044;28;20207;-69
2021/08/10 04:29:48;;;;;;;6.20;3.03;;;;;;;13.50;100.00;101031.31;5050992;28;20188;-69
2021/08/10 04:32:13;;;;;;;4.40;2.70;;;;;;;13.57;100.00;101029.97;5052715;28;20301;-69
2021/08/10 04:34:39;;;;;;;5.20;3.00;;;;;;;13.57;100.00;101027.28;5051352;28;20179;-69
2021/08/10 04:37:04;;;;;;;4.00;2.37;;;;;;;13.56;100.00;101022.88;5034416;28;20333;-70
2021/08/10 04:39:30;;;;;;;5.10;2.73;;;;;;;13.63;100.00;101032.25;5050875;28;20287;-70
2021/08/10 04:41:56;;;;;;;5.33;2.70;;;;;;;13.83;100.00;101028.34;5052455;28;20168;-70
2021/08/10 04:44:21;;;;;;;4.50;2.50;;;;;;;13.97;99.06;101026.50;5053749;28;20547;-70
2021/08/10 04:46:47;;;;;;;3.60;2.37;;;;;;;14.23;96.44;101013.22;5054587;28;20164;-68
2021/08/10 04:49:12;;;;;;;4.13;2.57;;;;;;;14.23;96.37;101018.59;5054644;28;20259;-69
2021/08/10 04:51:37;;;;;;;4.67;2.43;;;;;;;14.20;97.24;101026.84;5054944;28;20179;-67
2021/08/10 04:54:03;;;;;;;6.90;2.60;;;;;;;14.12;98.21;101024.63;5055379;28;20183;-68
2021/08/10 04:56:28;;;;;;;4.60;2.67;;;;;;;14.12;98.13;101029.16;5055007;28;20203;-69
2021/08/10 04:58:53;;;;;;;4.70;2.50;;;;;;;14.08;98.17;101029.34;5056947;28;20591;-69
2021/08/10 05:01:19;;;;;;;9.87;2.93;;;;;;;14.05;98.65;101029.53;5056419;28;20196;-69
2021/08/10 05:03:44;;;;;;;5.50;2.90;;;;;;;14.12;98.71;101023.78;5056505;28;20222;-69
2021/08/10 05:06:09;;;;;;;4.30;2.83;;;;;;;14.08;98.40;101021.28;5054587;28;20176;-68
2021/08/10 05:08:35;;;;;;;5.20;2.47;;;;;;;14.12;98.58;101027.31;5054672;28;20229;-68
2021/08/10 05:11:01;;;;;;;4.43;2.30;;;;;;;14.06;99.18;101035.78;5056231;28;20192;-69
2021/08/10 05:13:26;;;;;;;4.00;2.50;;;;;;;14.08;98.72;101031.16;5056201;28;20187;-69
2021/08/10 05:15:52;;;;;;;5.67;2.47;;;;;;;14.23;98.27;101027.50;5055687;28;20206;-69
2021/08/10 05:18:17;;;;;;;3.60;2.23;;;;;;;14.40;97.91;101032.63;5054440;28;20194;-68
2021/08/10 05:20:42;;;;;;;7.70;2.60;;;;;;;14.31;97.97;101041.28;5056532;28;20203;-69
2021/08/10 05:23:08;;;;;;;6.17;2.50;;;;;;;14.54;97.12;101039.81;5054720;28;20274;-71
2021/08/10 05:25:33;;;;;;;4.73;2.50;;;;;;;14.74;96.08;101032.25;5054184;28;20174;-70
2021/08/10 05:27:58;;;;;;;4.57;2.60;;;;;;;14.95;94.60;101030.81;5054962;28;20179;-71
2021/08/10 05:30:24;;;;;;;5.80;2.50;;;;;;;15.07;94.63;101029.97;5054951;28;20714;-71
2021/08/10 05:32:49;;;;;;;3.83;2.47;;;;;;;15.05;94.03;101023.84;5055300;28;20248;-70
2021/08/10 05:35:14;;;;;;;2.73;2.10;;;;;;;15.44;91.05;101024.72;5054887;28;20190;-71
2021/08/10 05:37:40;;;;;;;3.37;2.17;;;;;;;15.31;91.54;101022.06;5054586;28;20211;-72
2021/08/10 05:40:06;;;;;;;5.83;2.40;;;;;;;15.50;90.95;101027.84;5053755;28;20698;-71
2021/08/10 05:42:31;;;;;;;4.20;2.50;;;;;;;15.76;88.90;101025.19;5055297;28;20536;-72
2021/08/10 05:44:56;;;;;;;3.43;2.17;;;;;;;15.56;90.70;101024.72;5055456;28;20179;-72
2021/08/10 05:47:22;;;;;;;8.23;2.70;;;;;;;15.75;88.99;101029.72;5054628;28;20171;-70
2021/08/10 05:49:47;;;;;;;5.40;2.47;;;;;;;15.60;89.77;101025.41;5036787;28;20207;-72
2021/08/10 05:52:12;;;;;;;3.47;2.23;;;;;;;15.47;90.98;101028.06;5053868;28;20172;-71
2021/08/10 05:54:38;;;;;;;7.27;2.50;;;;;;;15.79;90.71;101028.50;5054959;28;20179;-72
2021/08/10 05:57:04;;;;;;;4.33;2.20;;;;;;;15.89;90.07;101028.72;5053203;28;20206;-71
2021/08/10 05:59:29;;;;;;;4.13;1.97;;;;;;;15.96;89.76;101027.28;5054486;28;20242;-72
2021/08/10 06:01:55;;;;;;;4.37;2.53;;;;;;;16.12;89.72;101029.75;5053320;28;20175;-72
2021/08/10 06:04:20;;;;;;;5.47;2.83;;;;;;;16.36;88.00;101036.03;5053205;28;20179;-71
2021/08/10 06:06:46;;;;;;;2.73;2.00;;;;;;;16.56;85.01;101032.72;5055893;28;20198;-71
2021/08/10 06:09:11;;;;;;;5.27;3.10;;;;;;;16.59;84.19;101042.41;5056894;28;20175;-71
2021/08/10 06:11:36;;;;;;;7.23;2.63;;;;;;;16.56;85.25;101043.47;5055454;28;20172;-71
2021/08/10 06:14:03;;;;;;;3.50;2.30;;;;;;;16.42;85.56;101035.59;5055445;28;20258;-71
2021/08/10 06:16:28;;;;;;;4.30;2.33;;;;;;;16.48;83.55;101037.81;5055567;28;20733;-73
2021/08/10 06:18:53;;;;;;;3.43;2.30;;;;;;;16.62;84.54;101026.00;5054261;28;20268;-70
2021/08/10 06:21:19;;;;;;;4.93;2.40;;;;;;;16.66;84.87;101034.75;5053193;28;20679;-71
2021/08/10 06:23:44;;;;;;;4.40;2.10;;;;;;;16.69;85.19;101035.38;5053498;28;20172;-71
2021/08/10 06:26:10;;;;;;;5.53;2.17;;;;;;;16.19;86.70;101028.31;5053603;28;20180;-72
2021/08/10 06:28:35;;;;;;;4.03;2.50;;;;;;;16.61;85.59;101039.59;5053010;28;20222;-71
2021/08/10 06:31:03;;;;;;;4.57;2.63;;;;;;;16.67;85.20;101022.97;5054087;28;20199;-72
2021/08/10 06:33:28;;;;;;;6.03;4.37;;;;;;;16.72;85.55;101026.19;5054090;28;20266;-71
2021/08/10 06:35:53;;;;;;;5.50;3.80;;;;;;;16.92;83.23;101025.56;5052919;28;20282;-71
2021/08/10 06:38:19;;;;;;;4.43;2.77;;;;;;;16.96;82.72;101024.34;5053866;28;20179;-70
2021/08/10 06:40:44;;;;;;;5.37;2.57;;;;;;;16.87;82.99;101025.03;5052778;28;20187;-71
2021/08/10 06:43:09;;;;;;;4.90;2.33;;;;;;;17.01;84.42;101024.84;5053740;28;20194;-70
2021/08/10 06:45:35;;;;;;;4.80;2.57;;;;;;;16.96;85.11;101029.72;5053486;28;20245;-71
2021/08/10 06:48:01;;;;;;;3.77;2.23;;;;;;;17.17;83.80;101025.41;5035924;28;20175;-72
2021/08/10 06:50:26;;;;;;;5.60;2.17;;;;;;;16.82;83.84;101027.22;5036276;28;20593;-71
2021/08/10 06:52:51;;;;;;;4.20;2.37;;;;;;;17.16;83.52;101029.06;5053177;28;20245;-71
2021/08/10 06:55:17;;;;;;;5.90;2.00;;;;;;;17.03;82.68;101035.50;5054457;28;20180;-70
2021/08/10 06:57:43;;;;;;;3.77;2.10;;;;;;;17.00;82.48;101023.13;5054643;28;20172;-72
2021/08/10 07:00:09;;;;;;;3.90;2.40;;;;;;;16.99;82.62;101025.94;5054134;28;20183;-71
2021/08/10 07:02:34;;;;;;;10.63;2.77;;;;;;;17.04;82.31;101027.28;5053711;28;20194;-70
2021/08/10 07:05:00;;;;;;;4.40;2.43;;;;;;;17.31;80.92;101032.41;5053719;28;20201;-71
2021/08/10 07:07:25;;;;;;;2.80;2.07;;;;;;;17.39;82.07;101023.69;5053399;28;20548;-70
2021/08/10 07:09:50;;;;;;;5.60;2.63;;;;;;;17.75;80.10;101026.22;5052191;28;20316;-71
2021/08/10 07:12:16;;;;;;;5.27;2.03;;;;;;;17.91;78.86;101022.31;5052193;28;20183;-70
2021/08/10 07:14:41;;;;;;;9.20;6.07;;;;;;;18.17;77.97;101026.44;5035695;28;20183;-72
2021/08/10 07:17:07;;;;;;;6.77;2.90;;;;;;;18.02;78.78;101025.84;5052599;28;20192;-71
2021/08/10 07:19:33;;;;;;;3.53;1.97;;;;;;;17.86;79.61;101024.53;5053290;28;20559;-71
2021/08/10 07:21:58;;;;;;;5.33;2.07;;;;;;;18.03;79.42;101024.88;5036813;28;20179;-71
2021/08/10 07:24:23;;;;;;;5.23;2.23;;;;;;;18.00;79.18;101016.16;5053253;28;20540;-71
2021/08/10 07:26:49;;;;;;;5.40;1.93;;;;;;;18.22;77.80;101018.84;5036095;28;20172;-71
2021/08/10 07:29:14;;;;;;;2.13;1.70;;;;;;;18.25;77.84;101021.28;5054485;28;20254;-71
2021/08/10 07:31:39;;;;;;;3.97;2.40;;;;;;;18.32;77.28;101022.50;5054754;28;20253;-72
2021/08/10 07:34:05;;;;;;;4.10;2.03;;;;;;;18.22;77.88;101016.16;5055490;28;20221;-72
2021/08/10 07:36:30;;;;;;;3.97;2.27;;;;;;;18.43;77.35;101018.91;5052534;28;20206;-72
2021/08/10 07:38:55;;;;;;;2.97;2.10;;;;;;;18.62;77.76;101023.69;5053325;28;20171;-71
2021/08/10 07:41:20;;;;;;;2.87;1.90;;;;;;;18.81;76.61;101021.13;5051968;28;20187;-71
2021/08/10 07:43:46;;;;;;;6.13;1.83;;;;;;;19.17;74.06;101024.41;5052253;28;20175;-73
2021/08/10 07:46:11;;;;;;;5.03;1.97;;;;;;;18.85;75.38;101025.28;5054151;28;20197;-72
2021/08/10 07:48:37;;;;;;;4.17;2.03;;;;;;;19.38;74.15;101036.09;5052679;28;20241;-72
2021/08/10 07:51:02;;;;;;;3.85;2.20;;;;;;;19.34;72.32;101024.69;5052820;28;20695;-72
2021/08/10 07:53:27;;;;;;;3.57;1.90;;;;;;;19.81;71.95;101037.78;5054477;28;20179;-72
2021/08/10 07:55:52;;;;;;;3.23;1.80;;;;;;;19.65;71.31;101035.56;5052720;28;20533;-72
2021/08/10 07:58:18;;;;;;;6.60;1.90;;;;;;;19.24;72.66;101028.28;5034725;28;20186;-72
2021/08/10 08:00:43;;;;;;;3.73;1.87;;;;;;;19.53;72.97;101026.66;5051608;28;20192;-72
2021/08/10 08:03:10;;;;;;;5.30;1.93;;;;;;;19.64;71.32;101021.16;5035165;28;20179;-72
2021/08/10 08:05:36;;;;;;;4.00;2.17;;;;;;;19.38;72.92;101017.16;5051604;28;20171;-72
2021/08/10 08:08:01;;;;;;;4.10;1.90;;;;;;;19.23;73.09;101013.91;5051468;28;20163;-72
2021/08/10 08:10:26;;;;;;;4.37;2.10;;;;;;;19.27;73.21;101017.19;5051454;28;20262;-72
2021/08/10 08:12:52;;;;;;;5.83;2.13;;;;;;;19.23;75.12;101013.91;5052683;28;20575;-72
2021/08/10 08:15:17;;;;;;;6.00;1.83;;;;;;;19.17;73.47;101019.00;5052904;28;20179;-71
2021/08/10 08:17:43;;;;;;;5.37;2.27;;;;;;;19.46;71.08;101017.34;5051516;28;20578;-72
2021/08/10 08:20:09;;;;;;;4.70;2.43;;;;;;;19.57;70.77;101016.41;5055369;28;20191;-71
2021/08/10 08:22:34;;;;;;;3.73;2.27;;;;;;;19.66;71.57;101026.44;5038194;28;20175;-70
2021/08/10 08:25:00;;;;;;;7.13;2.20;;;;;;;19.91;70.82;101022.44;5055874;28;20540;-72
2021/08/10 08:27:25;;;;;;;6.50;2.77;;;;;;;20.07;69.58;101025.50;5057316;28;20174;-72
2021/08/10 08:29:50;;;;;;;4.20;2.67;;;;;;;20.04;69.60;101023.03;5055982;28;20199;-72
2021/08/10 08:32:15;;;;;;;2.87;2.20;;;;;;;20.12;69.71;101017.81;5057557;28;20172;-71
2021/08/10 08:34:41;;;;;;;6.13;2.80;;;;;;;20.20;70.10;101023.38;5054810;28;20168;-72
2021/08/10 08:37:06;;;;;;;2.93;2.13;;;;;;;20.20;69.79;101015.25;5055983;28;20582;-71
2021/08/10 08:39:32;;;;;;;5.70;2.20;;;;;;;20.36;68.03;101024.69;5054610;28;20199;-70
2021/08/10 08:42:01;;;;;;;2.93;1.77;;;;;;;20.47;68.43;101011.94;5054978;28;20754;-70
2021/08/10 08:44:34;;;;;;;4.67;1.90;;;;;;;20.56;66.92;101021.94;5055179;28;20278;-72
2021/08/10 08:47:00;;;;;;;3.33;2.07;;;;;;;20.44;66.92;101019.47;5055513;28;20235;-71
2021/08/10 08:49:26;;;;;;;4.27;2.00;;;;;;;20.47;66.52;101021.91;5054409;28;20584;-71
2021/08/10 08:51:52;;;;;;;4.33;1.90;;;;;;;20.69;65.00;101010.78;5054813;28;20168;-71
2021/08/10 08:54:18;;;;;;;3.73;1.70;;;;;;;20.80;64.92;101013.34;5040763;28;20210;-70
2021/08/10 08:56:43;;;;;;;4.03;1.67;;;;;;;20.83;64.95;101015.81;5055679;28;20217;-71
2021/08/10 08:59:09;;;;;;;3.43;2.00;;;;;;;21.05;65.21;101008.34;5038016;28;20176;-71
2021/08/10 09:01:38;;;;;;;3.90;1.93;;;;;;;21.21;64.85;101006.78;5054403;28;20564;-70
2021/08/10 09:04:07;;;;;;;5.07;1.73;;;;;;;21.33;64.88;100996.63;5054468;28;20199;-72
2021/08/10 09:06:32;;;;;;;4.10;1.67;;;;;;;21.17;63.69;100996.34;5054393;28;20164;-71
2021/08/10 09:09:19;;;;;;;4.27;1.90;;;;;;;21.39;62.06;100987.91;5037580;28;20517;-71
2021/08/10 09:11:48;;;;;;;4.63;1.80;;;;;;;21.65;63.12;100988.13;5055013;28;20165;-70
2021/08/10 09:14:13;;;;;;;4.37;1.80;;;;;;;21.61;62.65;100985.84;5055548;28;20176;-72
2021/08/10 09:16:39;;;;;;;2.93;1.97;;;;;;;21.96;61.01;100979.69;5054134;28;20203;-70
2021/08/10 09:19:05;;;;;;;2.47;1.70;;;;;;;21.88;60.85;100985.84;5054054;28;20175;-71
2021/08/10 09:21:33;;;;;;;2.67;1.70;;;;;;;22.07;61.15;100979.50;5054544;28;20199;-70
2021/08/10 09:23:59;;;;;;;4.63;1.60;;;;;;;21.85;59.55;100987.00;5055626;28;20168;-70
2021/08/10 09:26:37;;;;;;;3.67;2.03;;;;;;;22.06;59.68;100985.94;5055546;28;20171;-71
2021/08/10 09:29:02;;;;;;;4.97;1.83;;;;;;;22.03;59.68;100978.97;5055011;28;20241;-71
2021/08/10 09:31:41;;;;;;;5.33;2.00;;;;;;;21.61;61.99;100983.13;5037983;28;20618;-72
2021/08/10 09:34:17;;;;;;;2.60;1.40;;;;;;;21.90;60.93;100980.25;5038080;28;20172;-72
2021/08/10 09:36:46;;;;;;;3.43;1.87;;;;;;;22.02;60.55;100969.06;5055043;28;20194;-72
2021/08/10 09:39:11;;;;;;;18.47;12.80;;;;;;;22.10;60.78;100971.91;5057733;28;20176;-72
2021/08/10 09:41:37;;;;;;;4.37;2.63;;;;;;;21.97;61.56;100968.66;5055211;28;20329;-70
2021/08/10 09:44:18;;;;;;;4.80;1.97;;;;;;;22.16;60.07;100970.44;5043948;28;20171;-72
2021/08/10 09:46:47;;;;;;;3.43;1.90;;;;;;;21.83;61.24;100970.00;5059088;28;20175;-72
2021/08/10 09:49:12;;;;;;;4.97;2.23;;;;;;;21.95;60.21;100977.97;5054792;28;20552;-71
2021/08/10 09:51:42;;;;;;;5.30;2.23;;;;;;;21.67;61.06;100975.25;5074247;22;20235;-72
2021/08/10 09:54:11;;;;;;;2.87;1.73;;;;;;;21.60;61.90;100976.84;5053400;28;20213;-72
2021/08/10 09:56:55;;;;;;;5.63;2.27;;;;;;;21.09;62.33;100979.94;5054706;28;20229;-71
2021/08/10 09:59:27;;;;;;;2.23;1.73;;;;;;;20.76;64.41;100976.66;5053198;28;20540;-70
2021/08/10 10:01:59;;;;;;;4.67;2.00;;;;;;;19.95;67.86;100983.22;5054687;28;20202;-71
2021/08/10 10:04:26;;;;;;;5.37;1.97;;;;;;;19.54;69.92;100968.81;5053556;28;20171;-72
2021/08/10 10:06:54;;;;;;;5.73;2.43;;;;;;;19.62;71.61;100970.84;5054877;28;20222;-71
2021/08/10 10:09:20;;;;;;;5.63;2.30;;;;;;;19.77;72.15;100965.94;5053388;28;20535;-71
2021/08/10 10:11:47;;;;;;;4.43;1.90;;;;;;;20.14;70.11;100971.59;5052875;28;20283;-71
2021/08/10 10:14:15;;;;;;;3.87;2.00;;;;;;;20.53;68.67;100969.84;5053119;28;20168;-70
2021/08/10 10:16:43;;;;;;;3.93;1.80;;;;;;;19.88;72.04;100966.69;5058089;28;20198;-72
2021/08/10 10:19:10;;;;;;;6.43;2.70;;;;;;;20.51;69.61;100963.69;5065107;28;20243;-72
2021/08/10 10:21:38;;;;;;;6.23;2.07;;;;;;;20.25;69.36;100974.19;5046223;28;20344;-72
2021/08/10 10:24:03;;;;;;;6.17;2.37;;;;;;;19.83;71.14;100973.50;5053014;28;20168;-72
2021/08/10 10:26:31;;;;;;;5.23;2.50;;;;;;;20.53;67.55;100980.69;5036270;28;20180;-73
2021/08/10 10:28:56;;;;;;;5.43;2.50;;;;;;;20.50;67.99;100979.13;5054224;28;20640;-72
2021/08/10 10:31:24;;;;;;;5.07;2.20;;;;;;;20.60;68.21;100974.53;5052738;28;20191;-72
2021/08/10 10:33:51;;;;;;;3.90;2.57;;;;;;;20.45;68.27;100977.81;5052539;28;20176;-72
2021/08/10 10:36:16;;;;;;;5.30;2.40;;;;;;;20.75;67.55;100972.25;5053829;28;20249;-72
2021/08/10 10:38:43;;;;;;;6.13;2.40;;;;;;;20.84;67.75;100974.13;5052865;28;20168;-72
2021/08/10 10:41:09;;;;;;;3.73;2.47;;;;;;;20.89;67.97;100979.97;5051706;28;20225;-72
2021/08/10 10:43:34;;;;;;;5.50;2.80;;;;;;;21.00;68.07;100978.09;5035782;28;20629;-73
2021/08/10 10:46:34;;;;;;;6.07;2.60;;;;;;;20.97;67.81;100981.94;5052800;28;20200;-73
2021/08/10 10:49:04;;;;;;;5.77;2.30;;;;;;;20.78;68.90;100976.53;5052301;28;20167;-72
2021/08/10 10:51:32;;;;;;;4.40;2.13;;;;;;;20.55;70.23;100978.69;5052177;28;20207;-73
2021/08/10 10:54:24;;;;;;;3.80;1.93;;;;;;;20.48;71.92;100975.69;5052826;28;20628;-73
2021/08/10 10:56:59;;;;;;;5.27;2.77;;;;;;;20.19;73.29;100975.59;5054185;28;20245;-72
2021/08/10 10:59:37;;;;;;;3.07;2.00;;;;;;;19.64;74.87;100974.28;5053889;28;20163;-72
2021/08/10 11:02:24;;;;;;;5.53;2.40;;;;;;;19.54;75.49;100974.25;5053828;28;20525;-71
2021/08/10 11:05:08;;;;;;;5.90;2.60;;;;;;;19.77;74.41;100968.66;5053419;28;20159;-72
2021/08/10 11:07:44;;;;;;;7.27;2.50;;;;;;;20.05;73.43;100972.41;5052095;28;20187;-72
2021/08/10 11:10:11;;;;;;;7.73;2.80;;;;;;;20.46;71.08;100969.56;5053002;28;20240;-73
2021/08/10 11:12:44;;;;;;;5.60;2.63;;;;;;;20.65;70.66;100973.25;5053286;28;20164;-71
2021/08/10 11:15:14;;;;;;;3.97;2.47;;;;;;;20.65;70.27;100968.69;5052645;28;20290;-72
2021/08/10 11:17:39;;;;;;;6.23;2.83;;;;;;;20.86;69.29;100973.97;5051994;28;20194;-72
2021/08/10 11:20:25;;;;;;;4.83;2.73;;;;;;;20.99;69.55;100973.66;5053483;28;20192;-72
2021/08/10 11:22:51;;;;;;;4.37;2.40;;;;;;;20.95;69.28;100980.38;5052267;28;20164;-71